^^
Datos históricos de la estación: Murcia-Puente Tocinos
Diario Informe para Octubre 9, 2021 Unidades:  Métrico    Ingés   Ambas
Diario Semanal Mensual Anual
  Máxima: Mínima: Promedio:
Temperatura: 26 °C 18.1 °C 21.4 °C
Punto de rocio: 17.2 °C 15.4 °C 16.2 °C
Humedad: 88% 52% 73%
Velocidad viento: 18km/h 0km/h 6.5km/h
Racha viento: 29.8km/h - -
Viento- - ESE
Presión: 1019.4 hPa 1016.4 hPa -
Precipitación: 0.0 mm    
 
 
Tabla de datos para Octubre 9, 2021
Hora Temperatura Punto de rocio Presión Viento Velocidad viento Racha viento Humedad Intensidad lluvia(por hora) Nubes
00:04 20 °C 16.6 °C 1018.0 hPa NNE 5.8 km/h 10 km/h 80.8% 0.0 mm
00:09 19.9 °C 16.6 °C 1018.0 hPa NNE 6 km/h 13 km/h 81% 0.0 mm
00:14 19.8 °C 16.5 °C 1018.0 hPa NNE 6.9 km/h 11.1 km/h 81% 0.0 mm
00:19 19.8 °C 16.4 °C 1018.0 hPa NE 7.1 km/h 11.1 km/h 81% 0.0 mm
00:24 19.7 °C 16.5 °C 1018.0 hPa NE 7.6 km/h 11.1 km/h 81.9% 0.0 mm
00:29 19.7 °C 16.5 °C 1018.0 hPa NE 7.3 km/h 9.3 km/h 82% 0.0 mm
00:34 19.6 °C 16.4 °C 1018.0 hPa NNE 6.4 km/h 9.5 km/h 82% 0.0 mm
00:39 19.6 °C 16.4 °C 1018.0 hPa NE 6.4 km/h 10.3 km/h 82% 0.0 mm
00:44 19.6 °C 16.4 °C 1018.0 hPa NE 6.4 km/h 11.1 km/h 82% 0.0 mm
00:49 19.7 °C 16.5 °C 1018.0 hPa NE 6.5 km/h 11.1 km/h 82% 0.0 mm
00:54 19.7 °C 16.6 °C 1018.0 hPa NE 6.9 km/h 11.1 km/h 82% 0.0 mm
00:59 19.7 °C 16.5 °C 1018.0 hPa ENE 6.9 km/h 10 km/h 81.6% 0.0 mm
01:04 19.7 °C 16.4 °C 1018.0 hPa Este 6.9 km/h 7.4 km/h 81% 0.0 mm
01:09 19.7 °C 16.3 °C 1018.0 hPa ENE 6.1 km/h 7.4 km/h 81% 0.0 mm
01:14 19.7 °C 16.3 °C 1018.0 hPa Este 3.2 km/h 7.4 km/h 81% 0.0 mm
01:19 19.7 °C 16.3 °C 1018.0 hPa ESE 3.5 km/h 7.6 km/h 81% 0.0 mm
01:24 19.7 °C 16.3 °C 1018.0 hPa ESE 4.7 km/h 7.4 km/h 81% 0.0 mm
01:29 19.7 °C 16.3 °C 1017.9 hPa ESE 4.5 km/h 7.4 km/h 81% 0.0 mm
01:34 19.7 °C 16.3 °C 1017.9 hPa ESE 3.9 km/h 5.6 km/h 81% 0.0 mm
01:39 19.7 °C 16.3 °C 1017.9 hPa ESE 3.6 km/h 5.8 km/h 81% 0.0 mm
01:44 19.7 °C 16.3 °C 1017.9 hPa ESE 2.9 km/h 5.6 km/h 81% 0.0 mm
01:49 19.7 °C 16.3 °C 1017.9 hPa ENE 2.9 km/h 7.6 km/h 81% 0.0 mm
01:54 19.6 °C 16.2 °C 1018.0 hPa NNO 2.9 km/h 7.4 km/h 81% 0.0 mm
01:59 19.4 °C 16.2 °C 1018.0 hPa NNO 3.2 km/h 5.6 km/h 81.6% 0.0 mm
02:04 19.3 °C 16.2 °C 1018.0 hPa NNO 3.9 km/h 5.6 km/h 82% 0.0 mm
02:09 19.2 °C 16.2 °C 1018.0 hPa NNO 3.7 km/h 5.8 km/h 82.6% 0.0 mm
02:14 19.2 °C 16.2 °C 1017.8 hPa NNO 3.2 km/h 5.8 km/h 83% 0.0 mm
02:19 19.1 °C 16.2 °C 1017.8 hPa North 3.4 km/h 5.8 km/h 83% 0.0 mm
02:24 19.1 °C 16.3 °C 1017.8 hPa NNE 3.9 km/h 5.8 km/h 83.8% 0.0 mm
02:29 19.1 °C 16.3 °C 1017.7 hPa NNE 3.7 km/h 7.4 km/h 84% 0.0 mm
02:34 19.1 °C 16.3 °C 1017.7 hPa NNE 3.2 km/h 5.6 km/h 84% 0.0 mm
02:39 19.1 °C 16.3 °C 1017.7 hPa NNE 3.2 km/h 6.4 km/h 84% 0.0 mm
02:44 19.1 °C 16.3 °C 1017.7 hPa NE 3.2 km/h 8.7 km/h 84% 0.0 mm
02:49 19.1 °C 16.3 °C 1017.7 hPa NE 3.8 km/h 9.3 km/h 84% 0.0 mm
02:54 19 °C 16.3 °C 1017.7 hPa NE 5.8 km/h 9.5 km/h 84% 0.0 mm
02:59 18.9 °C 16.1 °C 1017.7 hPa NE 6.1 km/h 11.1 km/h 84% 0.0 mm
03:04 18.8 °C 16 °C 1017.7 hPa NE 6.9 km/h 11.1 km/h 84% 0.0 mm
03:09 18.6 °C 16 °C 1017.7 hPa NE 7.1 km/h 11.1 km/h 85% 0.0 mm
03:14 18.5 °C 16 °C 1017.6 hPa NE 7.6 km/h 10 km/h 85% 0.0 mm
03:19 18.5 °C 15.9 °C 1017.6 hPa NE 7 km/h 7.4 km/h 85% 0.0 mm
03:24 18.5 °C 16.1 °C 1017.6 hPa NE 4.7 km/h 5.6 km/h 85.9% 0.0 mm
03:29 18.6 °C 16 °C 1017.5 hPa ENE 4.4 km/h 5.6 km/h 85.2% 0.0 mm
03:34 18.5 °C 15.9 °C 1017.5 hPa Este 3.2 km/h 5.8 km/h 85% 0.0 mm
03:39 18.4 °C 15.8 °C 1017.5 hPa Este 3.4 km/h 5.6 km/h 85% 0.0 mm
03:44 18.4 °C 15.9 °C 1017.5 hPa Este 3.9 km/h 3.9 km/h 85.6% 0.0 mm
03:49 18.3 °C 15.9 °C 1017.5 hPa NNE 3.6 km/h 7.4 km/h 85.7% 0.0 mm
03:54 18.3 °C 15.8 °C 1017.5 hPa NNO 2.9 km/h 7.6 km/h 85.4% 0.0 mm
03:59 18.2 °C 15.8 °C 1017.5 hPa NNO 3.1 km/h 5.6 km/h 86% 0.0 mm
04:04 18.2 °C 15.8 °C 1017.5 hPa NNO 3.9 km/h 5.8 km/h 86% 0.0 mm
04:09 18.2 °C 15.8 °C 1017.5 hPa NNE 3.7 km/h 5.6 km/h 86% 0.0 mm
04:14 18.2 °C 15.9 °C 1017.4 hPa NNE 3.2 km/h 5 km/h 86.3% 0.0 mm
04:19 18.2 °C 16 °C 1017.4 hPa NNE 3 km/h 5.6 km/h 87% 0.0 mm
04:24 18.2 °C 16 °C 1017.5 hPa NNE 2.3 km/h 4.7 km/h 86.9% 0.0 mm
04:29 18.2 °C 16 °C 1017.5 hPa NNE 2.4 km/h 7.4 km/h 86.9% 0.0 mm
04:34 18.3 °C 15.9 °C 1017.5 hPa NE 2.9 km/h 7.4 km/h 86% 0.0 mm
04:39 18.3 °C 15.9 °C 1017.5 hPa NE 3.3 km/h 7.4 km/h 86% 0.0 mm
04:44 18.3 °C 15.9 °C 1017.5 hPa NNE 4.7 km/h 5.8 km/h 86% 0.0 mm
04:49 18.4 °C 16 °C 1017.5 hPa NO 4.3 km/h 5.6 km/h 86% 0.0 mm
04:54 18.4 °C 16 °C 1017.5 hPa NO 2.9 km/h 5.6 km/h 86% 0.0 mm
04:59 18.4 °C 16 °C 1017.4 hPa NNO 2.9 km/h 3.9 km/h 86% 0.0 mm
05:04 18.4 °C 16 °C 1017.4 hPa NNE 2.9 km/h 4.7 km/h 86% 0.0 mm
05:09 18.5 °C 16.1 °C 1017.4 hPa ENE 2.8 km/h 3.7 km/h 86% 0.0 mm
05:14 18.5 °C 16.1 °C 1017.3 hPa ENE 2.3 km/h 3.7 km/h 86% 0.0 mm
05:19 18.6 °C 16.2 °C 1017.3 hPa ENE 1.7 km/h 3.7 km/h 86% 0.0 mm
05:24 18.6 °C 16.2 °C 1017.3 hPa Calm   3.9 km/h 85.9% 0.0 mm
05:29 18.6 °C 16 °C 1017.3 hPa ENE 0.5 km/h 4.7 km/h 85% 0.0 mm
05:34 18.6 °C 16 °C 1017.3 hPa NNO 2.3 km/h 7.4 km/h 85% 0.0 mm
05:39 18.6 °C 16 °C 1017.3 hPa NO 2.4 km/h 4.7 km/h 85% 0.0 mm
05:44 18.6 °C 16 °C 1017.3 hPa NO 2.9 km/h 3.7 km/h 85% 0.0 mm
05:49 18.6 °C 16 °C 1017.3 hPa NO 2.3 km/h   85% 0.0 mm
05:54 18.6 °C 16 °C 1017.4 hPa Calm   2.9 km/h 85% 0.0 mm
05:59 18.6 °C 16 °C 1017.4 hPa Calm   3.9 km/h 85% 0.0 mm
06:04 18.6 °C 16 °C 1017.4 hPa Calm   5.8 km/h 85% 0.0 mm
06:09 18.7 °C 16.1 °C 1017.4 hPa NNE 0.7 km/h 5.8 km/h 85% 0.0 mm
06:14 18.7 °C 16.1 °C 1017.4 hPa NNE 3.2 km/h 3.7 km/h 85% 0.0 mm
06:19 18.7 °C 16.1 °C 1017.4 hPa NNE 2.5 km/h 3.7 km/h 85% 0.0 mm
06:24 18.8 °C 16.2 °C 1017.4 hPa Calm     85% 0.0 mm
06:29 18.8 °C 16.2 °C 1017.4 hPa Calm   3.7 km/h 85% 0.0 mm
06:34 18.8 °C 16.2 °C 1017.4 hPa Calm   4.7 km/h 85% 0.0 mm
06:39 18.8 °C 16.1 °C 1017.4 hPa NNE 0.5 km/h 5.6 km/h 84.1% 0.0 mm
06:44 18.8 °C 16.1 °C 1017.3 hPa NNE 2.3 km/h 3.7 km/h 84% 0.0 mm
06:49 18.8 °C 16.1 °C 1017.3 hPa NNE 1.8 km/h 3.9 km/h 84.2% 0.0 mm
06:54 18.8 °C 16.2 °C 1017.3 hPa Calm   3.7 km/h 84.6% 0.0 mm
06:59 18.8 °C 16.1 °C 1017.3 hPa NNE 0.5 km/h 3.7 km/h 84% 0.0 mm
07:04 18.8 °C 16 °C 1017.3 hPa NNE 2.3 km/h   84.1% 0.0 mm
07:09 18.7 °C 16.1 °C 1017.3 hPa NNE 2.3 km/h 6.4 km/h 84.6% 0.0 mm
07:14 18.7 °C 16.1 °C 1017.3 hPa NE 2.3 km/h 7.4 km/h 85% 0.0 mm
07:19 18.7 °C 16.1 °C 1017.3 hPa ESE 2.6 km/h 7.4 km/h 85% 0.0 mm
07:24 18.8 °C 16.2 °C 1017.3 hPa SE 3.9 km/h 7.4 km/h 85% 0.0 mm
07:29 18.8 °C 16.2 °C 1017.3 hPa SSE 4 km/h 10 km/h 85% 0.0 mm
07:34 18.7 °C 16.1 °C 1017.3 hPa Sur 4.7 km/h 8.4 km/h 85% 0.0 mm
07:39 18.7 °C 16.2 °C 1017.3 hPa SSO 4.7 km/h 7.4 km/h 85.4% 0.0 mm
07:44 18.7 °C 16.3 °C 1017.3 hPa SO 5 km/h 7.4 km/h 86% 0.0 mm
07:49 18.7 °C 16.3 °C 1017.3 hPa OSO 4.8 km/h 5.8 km/h 86% 0.0 mm
07:54 18.7 °C 16.3 °C 1017.4 hPa Oeste 3.9 km/h 5.8 km/h 86% 0.0 mm
07:59 18.6 °C 16 °C 1017.4 hPa NO 3.9 km/h 7.4 km/h 85% 0.0 mm
08:04 18.4 °C 15.8 °C 1017.4 hPa NO 3.9 km/h 5.8 km/h 85% 0.0 mm
08:09 18.3 °C 15.8 °C 1017.7 hPa NO 3.5 km/h 3.7 km/h 85.7% 0.0 mm
08:14 18.2 °C 15.8 °C 1017.7 hPa NO 2.3 km/h 4.7 km/h 86% 0.0 mm
08:19 18.2 °C 15.9 °C 1017.7 hPa NO 2.4 km/h 5.6 km/h 86.2% 0.0 mm
08:24 18.1 °C 15.9 °C 1017.8 hPa NO 2.9 km/h 3.9 km/h 87% 0.0 mm
08:29 18.1 °C 15.9 °C 1017.8 hPa NO 2.8 km/h 5 km/h 87% 0.0 mm
08:34 18.1 °C 15.9 °C 1017.8 hPa NO 2.3 km/h 5.6 km/h 87% 0.0 mm
08:39 18.1 °C 15.9 °C 1018.0 hPa ENE 2.5 km/h 7.4 km/h 87% 0.0 mm
08:44 18.1 °C 15.9 °C 1018.0 hPa Este 3.2 km/h 7.4 km/h 87% 0.0 mm
08:49 18.2 °C 16 °C 1018.0 hPa ESE 3.4 km/h 5.8 km/h 87% 0.0 mm
08:54 18.2 °C 16.2 °C 1018.1 hPa SE 3.9 km/h 9.5 km/h 87.9% 0.0 mm
08:59 18.3 °C 16.3 °C 1018.1 hPa SSE 4.4 km/h 7.6 km/h 88% 0.0 mm
09:04 18.4 °C 16.2 °C 1018.1 hPa SSE 5.8 km/h 8.4 km/h 87% 0.0 mm
09:09 18.6 °C 16.3 °C 1018.2 hPa SSE 5.8 km/h 9.5 km/h 87% 0.0 mm
09:14 18.7 °C 16.4 °C 1018.2 hPa SSE 5.8 km/h 8.4 km/h 86.7% 0.0 mm
09:19 18.8 °C 16.4 °C 1018.2 hPa SSE 5.6 km/h 9.3 km/h 86.1% 0.0 mm
09:24 18.9 °C 16.5 °C 1018.4 hPa SE 5 km/h 8.4 km/h 85.6% 0.0 mm
09:29 19.1 °C 16.5 °C 1018.4 hPa Sur 5 km/h 9.3 km/h 85% 0.0 mm
09:34 19.3 °C 16.6 °C 1018.4 hPa Sur 5 km/h 9.5 km/h 84.6% 0.0 mm
09:39 19.3 °C 16.4 °C 1018.5 hPa SO 5.3 km/h 11.1 km/h 83.6% 0.0 mm
09:44 19.4 °C 16.6 °C 1018.5 hPa SSO 6.4 km/h 9.3 km/h 84% 0.0 mm
09:49 19.6 °C 16.7 °C 1018.5 hPa Oeste 5.9 km/h 5.8 km/h 83.6% 0.0 mm
09:54 19.7 °C 16.7 °C 1018.7 hPa Oeste 3.9 km/h 7.4 km/h 83% 0.0 mm
09:59 19.8 °C 16.7 °C 1018.7 hPa SO 3.9 km/h 7.4 km/h 82.1% 0.0 mm
10:04 19.9 °C 16.7 °C 1018.7 hPa SSO 3.9 km/h 7.4 km/h 81.6% 0.0 mm
10:09 20.1 °C 16.9 °C 1018.8 hPa Sur 3.9 km/h 6.9 km/h 81.7% 0.0 mm
10:14 20.3 °C 16.8 °C 1018.8 hPa SSO 3.9 km/h 7.4 km/h 80.4% 0.0 mm
10:19 20.6 °C 17 °C 1018.8 hPa SE 3.9 km/h 5.8 km/h 80% 0.0 mm
10:24 20.9 °C 17 °C 1018.9 hPa SSE 3.9 km/h 7.4 km/h 78.7% 0.0 mm
10:29 21.2 °C 17.1 °C 1018.9 hPa SE 3.7 km/h 7.4 km/h 77.5% 0.0 mm
10:34 21.4 °C 17.1 °C 1018.9 hPa SSE 3.2 km/h 5.6 km/h 76.5% 0.0 mm
10:39 21.6 °C 17 °C 1018.9 hPa Oeste 3.2 km/h 5.8 km/h 75% 0.0 mm
10:44 21.7 °C 17 °C 1018.9 hPa Oeste 2.9 km/h 5.8 km/h 74.9% 0.0 mm
10:49 21.8 °C 17.1 °C 1018.9 hPa NO 3 km/h 8.4 km/h 74.8% 0.0 mm
10:54 22 °C 17.1 °C 1018.9 hPa North 3.2 km/h 7.4 km/h 73.7% 0.0 mm
10:59 22.1 °C 17.1 °C 1018.9 hPa NNO 3.4 km/h 7.4 km/h 73% 0.0 mm
11:04 22.3 °C 17.1 °C 1018.9 hPa ENE 3.9 km/h 8.4 km/h 72.5% 0.0 mm
11:09 22.4 °C 17 °C 1018.9 hPa North 4 km/h 7.6 km/h 71.4% 0.0 mm
11:14 22.5 °C 17.1 °C 1018.9 hPa NE 4.7 km/h 9.5 km/h 71.5% 0.0 mm
11:19 22.7 °C 17.2 °C 1018.9 hPa NNE 4.5 km/h 7.4 km/h 71% 0.0 mm
11:24 23 °C 17.2 °C 1018.9 hPa North 3.9 km/h 9.3 km/h 69.8% 0.0 mm
11:29 23 °C 17 °C 1018.9 hPa ENE 4.2 km/h 10 km/h 69% 0.0 mm
11:34 23.2 °C 17.2 °C 1018.9 hPa NE 5.8 km/h 7.4 km/h 69% 0.0 mm
11:39 23.4 °C 16.8 °C 1019.0 hPa Este 5.5 km/h 10 km/h 66.6% 0.0 mm
11:44 23.3 °C 16.7 °C 1019.0 hPa NE 4.7 km/h 13 km/h 66.2% 0.0 mm
11:49 23.3 °C 16.6 °C 1019.0 hPa NE 4.7 km/h 9.3 km/h 66% 0.0 mm
11:54 23.4 °C 16.6 °C 1019.0 hPa North 5 km/h 11.1 km/h 65.7% 0.0 mm
11:59 23.5 °C 16.7 °C 1018.9 hPa North 5 km/h 7.4 km/h 66% 0.0 mm
12:04 23.8 °C 16.8 °C 1018.9 hPa North 5 km/h 8.4 km/h 64.9% 0.0 mm
12:09 23.9 °C 16.4 °C 1018.9 hPa NE 4.9 km/h 10.3 km/h 62.8% 0.0 mm
12:14 23.8 °C 16.2 °C 1018.8 hPa NE 4.7 km/h 13 km/h 62.5% 0.0 mm
12:19 23.7 °C 16.3 °C 1018.8 hPa North 4.9 km/h 13 km/h 63.5% 0.0 mm
12:24 23.7 °C 16.5 °C 1018.8 hPa NNO 5.8 km/h 7.4 km/h 64% 0.0 mm
12:29 23.7 °C 16.3 °C 1018.8 hPa North 5.2 km/h 5.6 km/h 63.4% 0.0 mm
12:34 23.8 °C 16.3 °C 1018.8 hPa ENE 3.2 km/h 10 km/h 63.1% 0.0 mm
12:39 23.7 °C 16.1 °C 1018.8 hPa ENE 3.6 km/h 11.1 km/h 62.7% 0.0 mm
12:44 23.6 °C 16.2 °C 1018.7 hPa NNO 5 km/h 7.4 km/h 63% 0.0 mm
12:49 23.7 °C 16.2 °C 1018.7 hPa NO 4.4 km/h 7.4 km/h 63% 0.0 mm
12:54 23.8 °C 16.2 °C 1018.7 hPa NE 2.3 km/h 7.6 km/h 62.5% 0.0 mm
12:59 23.9 °C 16.2 °C 1018.7 hPa NO 2.8 km/h 7.4 km/h 62% 0.0 mm
13:04 23.9 °C 16.2 °C 1018.7 hPa NO 4.7 km/h 8.7 km/h 62% 0.0 mm
13:09 23.9 °C 16.2 °C 1018.7 hPa ONO 4.7 km/h 9.3 km/h 62% 0.0 mm
13:14 24 °C 16.3 °C 1018.7 hPa NO 4.7 km/h 8.4 km/h 62% 0.0 mm
13:19 24 °C 16.3 °C 1018.7 hPa NNO 4.5 km/h 7.4 km/h 62.2% 0.0 mm
13:24 24.1 °C 16.3 °C 1018.7 hPa NE 3.9 km/h 11.1 km/h 61.8% 0.0 mm
13:29 24 °C 16.1 °C 1018.5 hPa ENE 4.4 km/h 9.3 km/h 61.3% 0.0 mm
13:34 24 °C 16.3 °C 1018.5 hPa NNE 6.4 km/h 9.3 km/h 61.9% 0.0 mm
13:39 24.2 °C 16.2 °C 1018.5 hPa NNE 6.1 km/h 9.3 km/h 61.1% 0.0 mm
13:44 24.3 °C 16.1 °C 1018.4 hPa NO 5 km/h 11.1 km/h 60.3% 0.0 mm
13:49 24.4 °C 16.1 °C 1018.4 hPa North 4.9 km/h 11.1 km/h 60% 0.0 mm
13:54 24.5 °C 16.1 °C 1018.4 hPa ONO 4.7 km/h 9.3 km/h 59.3% 0.0 mm
13:59 24.7 °C 16.1 °C 1018.1 hPa NE 5 km/h 14.8 km/h 58.8% 0.0 mm
14:04 24.7 °C 15.9 °C 1018.1 hPa NE 5.8 km/h 9.5 km/h 58.2% 0.0 mm
14:09 24.8 °C 16.1 °C 1018.1 hPa NNE 5.6 km/h 14.8 km/h 58.4% 0.0 mm
14:14 24.8 °C 15.7 °C 1018.0 hPa NE 5 km/h 14.8 km/h 57% 0.0 mm
14:19 24.8 °C 15.7 °C 1018.0 hPa NNO 5.3 km/h 9.3 km/h 57.1% 0.0 mm
14:24 25 °C 15.8 °C 1018.0 hPa North 6.4 km/h 14.8 km/h 56.6% 0.0 mm
14:29 25.2 °C 15.7 °C 1017.7 hPa ENE 6.5 km/h 15.6 km/h 55.8% 0.0 mm
14:34 25.1 °C 15.6 °C 1017.7 hPa Este 6.9 km/h 15.6 km/h 55.4% 0.0 mm
14:39 25.1 °C 15.5 °C 1017.7 hPa NE 7.2 km/h 13.7 km/h 55.1% 0.0 mm
14:44 25.2 °C 15.5 °C 1017.6 hPa ENE 8.4 km/h 14.8 km/h 55% 0.0 mm
14:49 25.3 °C 15.4 °C 1017.6 hPa ENE 8.1 km/h 14.8 km/h 54.4% 0.0 mm
14:54 25.5 °C 15.4 °C 1017.6 hPa SSE 6.9 km/h 10 km/h 53.8% 0.0 mm
14:59 25.8 °C 15.5 °C 1017.3 hPa SE 6.3 km/h 14 km/h 53.1% 0.0 mm
15:04 25.9 °C 15.9 °C 1017.3 hPa Este 4.7 km/h 14.8 km/h 53.9% 0.0 mm
15:09 25.9 °C 15.6 °C 1017.3 hPa Este 5.2 km/h 13.7 km/h 53% 0.0 mm
15:14 26 °C 15.7 °C 1017.2 hPa Este 7.6 km/h 18.5 km/h 52.8% 0.0 mm
15:19 26 °C 15.4 °C 1017.2 hPa ESE 8.1 km/h 18.5 km/h 52% 0.0 mm
15:24 25.9 °C 15.4 °C 1017.2 hPa SE 10 km/h 19 km/h 52.3% 0.0 mm
15:29 25.7 °C 15.6 °C 1017.2 hPa Sur 10 km/h 18 km/h 53.6% 0.0 mm
15:34 25.5 °C 15.9 °C 1017.2 hPa ESE 10 km/h 22.5 km/h 55.2% 0.0 mm
15:39 25.3 °C 16.1 °C 1017.2 hPa ESE 11 km/h 24.5 km/h 56.6% 0.0 mm
15:44 25.2 °C 16.2 °C 1017.1 hPa SE 14.8 km/h 24.1 km/h 57.4% 0.0 mm
15:49 25.1 °C 16.3 °C 1017.1 hPa SE 14.8 km/h 25.9 km/h 58% 0.0 mm
15:54 25.2 °C 16.4 °C 1017.1 hPa ESE 14.8 km/h 24.1 km/h 58.2% 0.0 mm
15:59 25.3 °C 16.3 °C 1017.0 hPa SE 14.6 km/h 25.9 km/h 57.6% 0.0 mm
16:04 25.2 °C 16.1 °C 1017.0 hPa SE 14 km/h 28.2 km/h 57% 0.0 mm
16:09 25.2 °C 16.2 °C 1017.0 hPa SE 14.5 km/h 25.9 km/h 57.5% 0.0 mm
16:14 25.3 °C 16.4 °C 1016.8 hPa SE 16.4 km/h 25.9 km/h 57.9% 0.0 mm
16:19 25.4 °C 16.3 °C 1016.8 hPa SE 15.9 km/h 22.5 km/h 57.1% 0.0 mm
16:24 25.3 °C 16.3 °C 1016.8 hPa ESE 13.7 km/h 25.9 km/h 57.1% 0.0 mm
16:29 25.3 °C 16.4 °C 1016.8 hPa SE 14.3 km/h 28.6 km/h 57.9% 0.0 mm
16:34 25.2 °C 16.3 °C 1016.8 hPa ESE 16.4 km/h 29.6 km/h 58% 0.0 mm
16:39 25.2 °C 16.5 °C 1016.8 hPa ESE 16.4 km/h 24.1 km/h 58.5% 0.0 mm
16:44 25.3 °C 16.4 °C 1016.7 hPa ESE 16.4 km/h 29.6 km/h 58% 0.0 mm
16:49 25.3 °C 16.4 °C 1016.7 hPa ESE 16.4 km/h 29.8 km/h 58% 0.0 mm
16:54 25.2 °C 16.3 °C 1016.7 hPa ESE 16.4 km/h 24.1 km/h 58% 0.0 mm
16:59 25.2 °C 16.4 °C 1016.6 hPa ESE 16.2 km/h 26.2 km/h 58% 0.0 mm
17:04 25.3 °C 16.2 °C 1016.6 hPa ESE 15.6 km/h 23.3 km/h 57.1% 0.0 mm
17:09 25.4 °C 16.3 °C 1016.6 hPa ESE 15.1 km/h 24.1 km/h 57% 0.0 mm
17:14 25.4 °C 16.3 °C 1016.5 hPa ESE 13 km/h 22.2 km/h 57% 0.0 mm
17:19 25.4 °C 16.5 °C 1016.5 hPa ESE 13.2 km/h 27.4 km/h 57.9% 0.0 mm
17:24 25.3 °C 16.5 °C 1016.5 hPa ESE 13.7 km/h 27.8 km/h 58% 0.0 mm
17:29 25.3 °C 16.4 °C 1016.5 hPa Este 13.9 km/h 24.5 km/h 58% 0.0 mm
17:34 25.3 °C 16.4 °C 1016.5 hPa ESE 14.8 km/h 27.8 km/h 58% 0.0 mm
17:39 25.2 °C 16.3 °C 1016.5 hPa ESE 14.8 km/h 29.6 km/h 57.8% 0.0 mm
17:44 25.2 °C 16.5 °C 1016.4 hPa ESE 14.8 km/h 27.8 km/h 58.8% 0.0 mm
17:49 25 °C 16.4 °C 1016.4 hPa ESE 15.5 km/h 25.9 km/h 59.1% 0.0 mm
17:54 24.9 °C 16.6 °C 1016.5 hPa ESE 18 km/h 26.2 km/h 59.8% 0.0 mm
17:59 24.9 °C 16.6 °C 1016.5 hPa ESE 17.6 km/h 28.6 km/h 60% 0.0 mm
18:04 24.8 °C 16.6 °C 1016.5 hPa ESE 16.4 km/h 29.6 km/h 60.5% 0.0 mm
18:09 24.7 °C 16.7 °C 1016.5 hPa ESE 16.4 km/h 27.8 km/h 61.3% 0.0 mm
18:14 24.5 °C 16.8 °C 1016.5 hPa ESE 16.4 km/h 27.8 km/h 62.1% 0.0 mm
18:19 24.3 °C 16.8 °C 1016.5 hPa ESE 16.4 km/h 25.9 km/h 63% 0.0 mm
18:24 24.3 °C 16.8 °C 1016.7 hPa Este 16.4 km/h 20.9 km/h 63% 0.0 mm
18:29 24.2 °C 16.7 °C 1016.7 hPa ESE 15.9 km/h 28.2 km/h 63.1% 0.0 mm
18:34 24.1 °C 16.8 °C 1016.7 hPa ESE 14 km/h 27.8 km/h 63.9% 0.0 mm
18:39 23.9 °C 16.7 °C 1016.7 hPa ESE 14.4 km/h 22.2 km/h 64% 0.0 mm
18:44 23.9 °C 16.7 °C 1016.7 hPa ESE 16.1 km/h 25.9 km/h 64% 0.0 mm
18:49 23.8 °C 16.6 °C 1016.7 hPa ESE 15.6 km/h 22.2 km/h 64% 0.0 mm
18:54 23.7 °C 16.6 °C 1016.9 hPa ESE 14 km/h 20.9 km/h 64.5% 0.0 mm
18:59 23.7 °C 16.7 °C 1016.9 hPa ESE 13.6 km/h 20.4 km/h 65% 0.0 mm
19:00 23.7 °C 16.7 °C 1016.9 hPa Este 12.2 km/h 18 km/h 65% 0.0 mm
19:09 23.5 °C 16.6 °C 1016.9 hPa Este 12.2 km/h 19.8 km/h 65% 0.0 mm
19:14 23.4 °C 16.4 °C 1016.9 hPa Este 11.9 km/h 20.4 km/h 64.7% 0.0 mm
19:19 23.3 °C 16.2 °C 1016.9 hPa Este 11.5 km/h 14.8 km/h 64.6% 0.0 mm
19:24 23.2 °C 16.2 °C 1017.2 hPa Este 10 km/h 13 km/h 64.8% 0.0 mm
19:29 23.1 °C 16 °C 1017.2 hPa Este 9.2 km/h 16.1 km/h 64.5% 0.0 mm
19:34 23 °C 15.8 °C 1017.2 hPa Este 6.9 km/h 20.4 km/h 64% 0.0 mm
19:39 22.8 °C 15.7 °C 1017.3 hPa Este 7.3 km/h 14.8 km/h 64% 0.0 mm
19:44 22.8 °C 15.8 °C 1017.3 hPa ENE 8.7 km/h 11.9 km/h 64.6% 0.0 mm
19:49 22.8 °C 15.9 °C 1017.3 hPa NE 8.2 km/h 13 km/h 65% 0.0 mm
19:54 22.7 °C 15.8 °C 1017.4 hPa NE 6.4 km/h 11.1 km/h 65% 0.0 mm
19:59 22.7 °C 15.8 °C 1017.4 hPa NE 6.6 km/h 14.8 km/h 65% 0.0 mm
20:04 22.6 °C 15.7 °C 1017.4 hPa NE 6.9 km/h 14.8 km/h 65% 0.0 mm
20:09 22.6 °C 15.6 °C 1017.6 hPa NE 7.3 km/h 15.6 km/h 65% 0.0 mm
20:14 22.5 °C 15.7 °C 1017.6 hPa NE 8.7 km/h 13.7 km/h 65.4% 0.0 mm
20:19 22.4 °C 15.7 °C 1017.6 hPa NE 8.6 km/h 17.2 km/h 66% 0.0 mm
20:24 22.3 °C 15.9 °C 1017.8 hPa NE 8.4 km/h 15.6 km/h 66.9% 0.0 mm
20:29 22.2 °C 15.8 °C 1017.8 hPa NNE 8.6 km/h 14.8 km/h 67.1% 0.0 mm
20:34 22.2 °C 16 °C 1017.8 hPa NNE 9.5 km/h 20.4 km/h 68% 0.0 mm
20:39 22.1 °C 15.9 °C 1018.0 hPa NE 9.6 km/h 13.7 km/h 68% 0.0 mm
20:44 22.1 °C 15.9 °C 1018.0 hPa NE 10 km/h 18.5 km/h 68% 0.0 mm
20:49 22.1 °C 15.9 °C 1018.0 hPa NE 9.9 km/h 16.7 km/h 68% 0.0 mm
20:54 22.1 °C 15.9 °C 1018.1 hPa NE 9.5 km/h 13.7 km/h 68% 0.0 mm
20:59 22.1 °C 15.9 °C 1018.1 hPa ENE 9 km/h 11.1 km/h 68% 0.0 mm
21:04 22.1 °C 15.9 °C 1018.1 hPa ENE 7.6 km/h 11.1 km/h 68% 0.0 mm
21:09 22.1 °C 15.9 °C 1018.3 hPa NE 7.2 km/h 9.5 km/h 68% 0.0 mm
21:14 22 °C 15.9 °C 1018.3 hPa NE 5.8 km/h 14.8 km/h 68% 0.0 mm
21:19 21.9 °C 15.9 °C 1018.3 hPa NE 6.2 km/h 11.9 km/h 69% 0.0 mm
21:24 21.8 °C 15.9 °C 1018.4 hPa NE 7.6 km/h 11.9 km/h 69.3% 0.0 mm
21:29 21.7 °C 16 °C 1018.4 hPa NE 7.6 km/h 11.9 km/h 70% 0.0 mm
21:34 21.6 °C 16.1 °C 1018.4 hPa ENE 7.6 km/h 12.2 km/h 70.9% 0.0 mm
21:39 21.4 °C 16 °C 1018.6 hPa NE 7.4 km/h 13 km/h 71% 0.0 mm
21:44 21.4 °C 16 °C 1018.6 hPa NE 6.9 km/h 15.6 km/h 71.4% 0.0 mm
21:49 21.3 °C 16.1 °C 1018.6 hPa NE 7.1 km/h 11.1 km/h 72% 0.0 mm
21:54 21.2 °C 16 °C 1018.7 hPa NE 7.6 km/h 14.8 km/h 72% 0.0 mm
21:59 21.2 °C 15.9 °C 1018.7 hPa NE 7.8 km/h 14.8 km/h 72% 0.0 mm
22:04 21.2 °C 15.9 °C 1018.7 hPa NE 8.4 km/h 11.1 km/h 72% 0.0 mm
22:09 21.2 °C 15.9 °C 1018.8 hPa NE 8.1 km/h 11.1 km/h 72% 0.0 mm
22:14 21.1 °C 16 °C 1018.8 hPa NE 6.9 km/h 11.1 km/h 72.8% 0.0 mm
22:19 20.9 °C 15.9 °C 1018.8 hPa NE 6.8 km/h 10 km/h 73% 0.0 mm
22:24 20.9 °C 15.9 °C 1018.8 hPa NE 6.4 km/h 14.8 km/h 73% 0.0 mm
22:29 20.8 °C 15.8 °C 1018.8 hPa NE 6.5 km/h 11.9 km/h 73% 0.0 mm
22:34 20.8 °C 15.8 °C 1018.8 hPa NE 6.9 km/h 11.9 km/h 73% 0.0 mm
22:39 20.8 °C 15.8 °C 1018.9 hPa NE 7.2 km/h 11.1 km/h 73% 0.0 mm
22:44 20.7 °C 15.7 °C 1018.9 hPa NE 8.4 km/h 10 km/h 73% 0.0 mm
22:49 20.7 °C 15.7 °C 1018.9 hPa NE 8.1 km/h 10 km/h 73% 0.0 mm
22:54 20.6 °C 15.6 °C 1019.0 hPa NE 6.9 km/h 9.3 km/h 73% 0.0 mm
22:59 20.6 °C 15.7 °C 1019.0 hPa NE 6.4 km/h 7.4 km/h 73.5% 0.0 mm
23:04 20.6 °C 15.7 °C 1019.0 hPa ENE 5 km/h 8.4 km/h 73.7% 0.0 mm
23:09 20.6 °C 15.6 °C 1019.2 hPa Este 4.7 km/h 7.6 km/h 73% 0.0 mm
23:14 20.5 °C 15.7 °C 1019.2 hPa NE 3.9 km/h 9.3 km/h 73.8% 0.0 mm
23:19 20.4 °C 15.6 °C 1019.2 hPa NE 4.1 km/h 8.4 km/h 74% 0.0 mm
23:24 20.3 °C 15.5 °C 1019.3 hPa ENE 5 km/h 7.4 km/h 74% 0.0 mm
23:29 20.3 °C 15.6 °C 1019.3 hPa ENE 4.7 km/h 7.4 km/h 74.6% 0.0 mm
23:34 20.2 °C 15.6 °C 1019.3 hPa NE 3.9 km/h 7.6 km/h 75% 0.0 mm
23:39 20.2 °C 15.6 °C 1019.4 hPa NE 4 km/h 9.3 km/h 75% 0.0 mm
23:44 20.2 °C 15.6 °C 1019.4 hPa NE 4.7 km/h 9.3 km/h 75% 0.0 mm
23:49 20.1 °C 15.6 °C 1019.4 hPa NE 4.9 km/h 9.3 km/h 75% 0.0 mm
23:54 20.1 °C 15.6 °C 1019.4 hPa NE 5.8 km/h 9.3 km/h 75% 0.0 mm
23:59 20.1 °C 15.6 °C 1019.4 hPa NE 5.8 km/h 11.1 km/h 75% 0.0 mm
Murcia-Puente Tocinos, Espa?a
Compliments of Weather Underground - 3 mb

La estación de MeteoMurcia.com, publica sus datos en los siguientes proyectos:

Weather Underground PWS IMURCIAP2 Meteoclimatic www.awekas.at

W3Counter
Web Analytics